createdAt,value
2019-05-02T00:01:02.476Z,32.70
2019-05-02T00:03:29.949Z,37.20
2019-05-02T00:05:57.342Z,35.90
2019-05-02T00:08:29.310Z,36.97
2019-05-02T00:10:52.194Z,39.87
2019-05-02T00:13:19.655Z,40.37
2019-05-02T00:15:47.071Z,39.27
2019-05-02T00:18:14.539Z,40.87
2019-05-02T00:20:41.951Z,43.77
2019-05-02T00:23:09.398Z,44.40
2019-05-02T00:25:36.813Z,47.70
2019-05-02T00:28:07.815Z,47.10
2019-05-02T00:30:34.610Z,45.57
2019-05-02T00:32:59.586Z,46.17
2019-05-02T00:35:26.598Z,43.77
2019-05-02T00:37:57.505Z,47.40
2019-05-02T00:40:25.783Z,48.53
2019-05-02T00:42:53.242Z,47.27
2019-05-02T00:45:18.687Z,45.33
2019-05-02T00:47:47.874Z,48.03
2019-05-02T00:50:13.838Z,47.47
2019-05-02T00:52:41.306Z,52.53
2019-05-02T00:55:08.743Z,52.87
2019-05-02T00:57:36.163Z,54.63
2019-05-02T01:00:03.585Z,51.47
2019-05-02T01:02:40.670Z,52.37
2019-05-02T01:05:07.066Z,54.57
2019-05-02T01:07:34.506Z,58.73
2019-05-02T01:10:01.946Z,59.67
2019-05-02T01:12:29.364Z,54.67
2019-05-02T01:14:56.848Z,54.63
2019-05-02T01:17:26.081Z,54.13
2019-05-02T01:19:52.738Z,55.20
2019-05-02T01:22:19.124Z,63.33
2019-05-02T01:24:46.575Z,60.67
2019-05-02T01:27:16.920Z,60.60
2019-05-02T01:29:46.962Z,60.47
2019-05-02T01:32:32.759Z,62.30
2019-05-02T01:35:18.775Z,60.67
2019-05-02T01:38:04.505Z,64.37
2019-05-02T01:40:31.955Z,61.83
2019-05-02T01:42:59.375Z,62.40
2019-05-02T01:45:26.818Z,62.63
2019-05-02T01:47:54.255Z,60.93
2019-05-02T01:50:21.666Z,65.17
2019-05-02T01:52:49.123Z,59.07
2019-05-02T01:55:17.012Z,61.23
2019-05-02T01:57:44.780Z,61.97
2019-05-02T02:00:11.544Z,61.57
2019-05-02T02:02:38.890Z,61.53
2019-05-02T02:05:06.355Z,62.17
2019-05-02T02:07:33.766Z,65.27
2019-05-02T02:10:01.208Z,64.63
2019-05-02T02:12:28.654Z,66.13
2019-05-02T02:14:56.084Z,63.60
2019-05-02T02:17:23.528Z,62.20
2019-05-02T02:19:50.932Z,61.53
2019-05-02T02:22:18.381Z,60.17
2019-05-02T02:24:45.824Z,63.80
2019-05-02T02:27:13.267Z,57.60
2019-05-02T02:29:44.071Z,59.57
2019-05-02T02:32:08.154Z,63.20
2019-05-02T02:34:35.594Z,62.03
2019-05-02T02:37:05.576Z,61.03
2019-05-02T02:39:30.495Z,61.03
2019-05-02T02:41:57.954Z,60.53
2019-05-02T02:44:33.856Z,64.00
2019-05-02T02:46:58.533Z,61.90
2019-05-02T02:49:26.008Z,65.77
2019-05-02T02:51:58.305Z,62.50
2019-05-02T02:54:20.838Z,62.10
2019-05-02T02:56:48.303Z,63.53
2019-05-02T02:59:19.590Z,61.97
2019-05-02T03:01:43.148Z,57.97
2019-05-02T03:04:12.283Z,63.77
2019-05-02T03:06:43.951Z,62.37
2019-05-02T03:09:05.476Z,59.37
2019-05-02T03:11:45.324Z,59.50
2019-05-02T03:14:15.938Z,64.63
2019-05-02T03:16:47.469Z,61.93
2019-05-02T03:19:14.862Z,63.30
2019-05-02T03:21:38.208Z,61.83
2019-05-02T03:24:06.052Z,63.30
2019-05-02T03:26:33.119Z,62.20
2019-05-02T03:29:00.925Z,63.83
2019-05-02T03:31:30.176Z,61.57
2019-05-02T03:34:00.165Z,59.47
2019-05-02T03:36:31.499Z,62.63
2019-05-02T03:38:50.319Z,63.80
2019-05-02T03:41:20.591Z,59.90
2019-05-02T03:43:45.181Z,60.83
2019-05-02T03:46:13.770Z,64.53
2019-05-02T03:48:40.063Z,61.43
2019-05-02T03:51:19.653Z,60.27
2019-05-02T03:53:34.932Z,59.23
2019-05-02T03:56:10.711Z,58.20
2019-05-02T03:58:29.798Z,61.47
2019-05-02T04:01:02.011Z,59.00
2019-05-02T04:03:24.671Z,59.10
2019-05-02T04:05:52.085Z,62.47
2019-05-02T04:08:20.792Z,60.67
2019-05-02T04:10:52.912Z,59.17
2019-05-02T04:13:14.415Z,59.80
2019-05-02T04:15:41.828Z,60.67
2019-05-02T04:20:36.733Z,56.63
2019-05-02T04:23:04.199Z,63.13
2019-05-02T04:25:33.989Z,62.87
2019-05-02T04:27:59.058Z,60.30
2019-05-02T04:30:26.479Z,61.60
2019-05-02T04:32:55.828Z,62.70
2019-05-02T04:35:21.384Z,64.33
2019-05-02T04:37:48.794Z,61.33
2019-05-02T04:40:18.267Z,62.27
2019-05-02T04:42:44.011Z,62.30
2019-05-02T04:45:24.139Z,59.57
2019-05-02T04:47:39.029Z,65.57
2019-05-02T04:50:17.622Z,65.30
2019-05-02T04:52:38.438Z,62.03
2019-05-02T04:55:14.726Z,63.07
2019-05-02T04:57:36.782Z,63.63
2019-05-02T05:02:49.663Z,61.50
2019-05-02T05:05:17.281Z,63.70
2019-05-02T05:07:46.221Z,61.30
2019-05-02T05:10:10.514Z,64.40
2019-05-02T05:12:41.683Z,63.93
2019-05-02T05:15:07.696Z,63.07
2019-05-02T05:17:34.146Z,60.30
2019-05-02T05:20:00.316Z,63.03
2019-05-02T05:22:28.374Z,64.10
2019-05-02T05:24:58.294Z,63.33
2019-05-02T05:27:27.385Z,65.30
2019-05-02T05:29:53.486Z,61.20
2019-05-02T05:32:20.289Z,60.13
2019-05-02T05:34:47.859Z,62.07
2019-05-02T05:37:17.135Z,64.80
2019-05-02T05:39:43.008Z,61.23
2019-05-02T05:42:10.685Z,64.40
2019-05-02T05:44:37.791Z,63.83
2019-05-02T05:47:04.835Z,67.47
2019-05-02T05:49:32.271Z,65.87
2019-05-02T05:52:02.819Z,67.47
2019-05-02T05:54:28.343Z,63.87
2019-05-02T05:56:54.539Z,64.97
2019-05-02T05:59:22.320Z,61.07
2019-05-02T06:01:51.617Z,62.63
2019-05-02T06:04:22.106Z,57.53
2019-05-02T06:06:44.297Z,59.63
2019-05-02T06:09:13.900Z,61.47
2019-05-02T06:11:39.189Z,60.63
2019-05-02T06:14:06.590Z,56.43
2019-05-02T06:16:35.302Z,58.83
2019-05-02T06:19:01.466Z,60.67
2019-05-02T06:21:28.896Z,57.03
2019-05-02T06:23:56.310Z,55.93
2019-05-02T06:26:23.744Z,57.60
2019-05-02T06:28:51.168Z,54.27
2019-05-02T06:31:18.628Z,53.90
2019-05-02T06:33:46.097Z,53.73
2019-05-02T06:36:13.507Z,54.37
2019-05-02T06:38:40.945Z,52.47
2019-05-02T06:41:08.381Z,49.30
2019-05-02T06:43:35.809Z,44.07
2019-05-02T06:46:15.554Z,49.93
2019-05-02T06:48:30.648Z,47.17
2019-05-02T06:50:58.092Z,48.27
2019-05-02T06:53:25.500Z,44.73
2019-05-02T06:55:52.902Z,45.47
2019-05-02T06:58:20.341Z,44.67
2019-05-02T07:00:57.721Z,45.20
2019-05-02T07:03:15.201Z,49.83
2019-05-02T07:05:42.628Z,46.47
2019-05-02T07:08:12.062Z,46.07
2019-05-02T07:10:44.567Z,53.10
2019-05-02T07:13:10.933Z,52.73
2019-05-02T07:15:43.957Z,52.20
2019-05-02T07:18:12.263Z,56.87
2019-05-02T07:20:40.696Z,57.87
2019-05-02T07:23:10.537Z,58.23
2019-05-02T07:25:33.662Z,55.87
2019-05-02T07:28:04.550Z,56.23
2019-05-02T07:30:30.090Z,54.60
2019-05-02T07:32:56.385Z,50.37
2019-05-02T07:35:24.526Z,53.83
2019-05-02T07:37:50.784Z,55.53
2019-05-02T07:40:18.868Z,52.10
2019-05-02T07:42:45.635Z,53.50
2019-05-02T07:45:13.047Z,51.80
2019-05-02T07:47:42.392Z,47.67
2019-05-02T07:50:10.389Z,47.23
2019-05-02T07:52:35.393Z,46.10
2019-05-02T07:55:02.804Z,48.37
2019-05-02T07:57:32.070Z,47.83
2019-05-02T08:00:00.669Z,47.07
2019-05-02T08:02:26.349Z,48.10
2019-05-02T08:04:52.486Z,47.47
2019-05-02T08:07:21.239Z,43.97
2019-05-02T08:09:47.337Z,42.90
2019-05-02T08:12:14.759Z,45.33
2019-05-02T08:14:42.181Z,48.20
2019-05-02T08:17:16.189Z,44.97
2019-05-02T08:19:37.627Z,40.80
2019-05-02T08:22:12.986Z,41.73
2019-05-02T08:24:32.986Z,36.60
2019-05-02T08:26:59.607Z,35.40
2019-05-02T08:29:28.868Z,36.47
2019-05-02T08:31:54.180Z,37.23
2019-05-02T08:34:33.474Z,36.03
2019-05-02T08:37:03.278Z,36.67
2019-05-02T08:39:33.059Z,35.00
2019-05-02T08:41:56.405Z,34.80
2019-05-02T08:44:23.180Z,37.13
2019-05-02T08:46:51.380Z,38.37
2019-05-02T08:49:18.757Z,35.20
2019-05-02T08:51:45.508Z,33.00
2019-05-02T08:54:12.941Z,33.33
2019-05-02T08:56:40.416Z,30.30
2019-05-02T08:59:07.866Z,30.73
2019-05-02T09:01:36.494Z,33.13
2019-05-02T09:04:03.907Z,32.33
2019-05-02T09:06:31.334Z,30.87
2019-05-02T09:08:58.760Z,31.93
2019-05-02T09:11:26.202Z,33.23
2019-05-02T09:13:53.630Z,32.80
2019-05-02T09:16:28.401Z,32.47
2019-05-02T09:18:53.280Z,32.47
2019-05-02T09:21:15.883Z,31.60
2019-05-02T09:23:44.017Z,31.73
2019-05-02T09:26:11.936Z,36.43
2019-05-02T09:28:38.146Z,32.90
2019-05-02T09:31:06.816Z,34.27
2019-05-02T09:33:36.731Z,34.20
2019-05-02T09:36:02.257Z,34.87
2019-05-02T09:38:27.826Z,31.73
2019-05-02T09:40:56.272Z,32.07
2019-05-02T09:43:22.912Z,33.47
2019-05-02T09:45:52.006Z,34.53
2019-05-02T09:48:21.862Z,33.40
2019-05-02T09:50:44.924Z,32.10
2019-05-02T09:53:20.053Z,33.27
2019-05-02T09:55:42.036Z,32.20
2019-05-02T09:58:10.527Z,32.60
2019-05-02T10:00:37.547Z,31.87
2019-05-02T10:03:04.987Z,32.73
2019-05-02T10:05:32.405Z,32.03
2019-05-02T10:08:03.197Z,32.33
2019-05-02T10:10:28.448Z,32.60
2019-05-02T10:12:55.866Z,35.60
2019-05-02T10:15:23.286Z,35.03
2019-05-02T10:17:51.907Z,35.03
2019-05-02T10:20:18.126Z,33.33
2019-05-02T10:22:46.598Z,35.37
2019-05-02T10:25:14.036Z,36.67
2019-05-02T10:27:43.895Z,36.77
2019-05-02T10:30:14.737Z,36.13
2019-05-02T10:32:36.276Z,36.80
2019-05-02T10:35:03.725Z,35.00
2019-05-02T10:37:38.030Z,34.53
2019-05-02T10:39:58.553Z,34.37
2019-05-02T10:42:25.969Z,35.43
2019-05-02T10:44:53.392Z,36.53
2019-05-02T10:47:22.178Z,37.13
2019-05-02T10:49:48.262Z,37.20
2019-05-02T10:52:15.691Z,37.70
2019-05-02T10:54:43.148Z,41.57
2019-05-02T10:57:12.551Z,36.57
2019-05-02T10:59:37.956Z,42.23
2019-05-02T11:02:07.973Z,39.27
2019-05-02T11:04:35.414Z,43.33
2019-05-02T11:07:02.851Z,42.93
2019-05-02T11:09:31.914Z,46.60
2019-05-02T11:11:57.673Z,48.53
2019-05-02T11:14:25.103Z,50.60
2019-05-02T11:16:52.608Z,51.67
2019-05-02T11:19:25.714Z,51.77
2019-05-02T11:21:58.646Z,53.17
2019-05-02T11:24:22.385Z,54.23
2019-05-02T11:26:47.968Z,48.67
2019-05-02T11:29:15.402Z,52.63
2019-05-02T11:31:42.849Z,56.50
2019-05-02T11:34:12.185Z,57.33
2019-05-02T11:36:37.693Z,55.53
2019-05-02T11:39:15.081Z,53.60
2019-05-02T11:41:32.562Z,56.77
2019-05-02T11:43:59.968Z,58.80
2019-05-02T11:46:27.459Z,55.40
2019-05-02T11:48:58.410Z,58.57
2019-05-02T11:51:22.813Z,63.40
2019-05-02T11:53:49.871Z,59.00
2019-05-02T11:56:17.304Z,57.97
2019-05-02T11:58:48.240Z,60.10
2019-05-02T12:01:12.582Z,60.10
2019-05-02T12:03:39.564Z,55.77
2019-05-02T12:06:12.707Z,56.40
2019-05-02T12:08:34.407Z,60.87
2019-05-02T12:11:03.734Z,61.37
2019-05-02T12:13:29.259Z,58.17
2019-05-02T12:15:56.682Z,54.90
2019-05-02T12:18:24.144Z,51.30
2019-05-02T12:20:52.165Z,48.63
2019-05-02T12:23:18.953Z,48.20
2019-05-02T12:25:46.357Z,46.07
2019-05-02T12:28:13.788Z,45.83
2019-05-02T12:30:41.882Z,46.10
2019-05-02T12:33:08.633Z,45.93
2019-05-02T12:35:36.063Z,47.20
2019-05-02T12:38:03.459Z,46.20
2019-05-02T12:40:32.561Z,45.60
2019-05-02T12:42:58.304Z,45.47
2019-05-02T12:45:25.745Z,43.80
2019-05-02T12:47:53.158Z,46.27
2019-05-02T12:50:22.486Z,44.17
2019-05-02T12:52:48.024Z,45.83
2019-05-02T12:55:15.721Z,47.17
2019-05-02T12:57:43.154Z,51.10
2019-05-02T13:00:12.730Z,51.30
2019-05-02T13:02:41.721Z,55.13
2019-05-02T13:05:08.253Z,56.83
2019-05-02T13:07:35.663Z,58.07
2019-05-02T13:10:03.109Z,54.77
2019-05-02T13:12:36.012Z,45.67
2019-05-02T13:15:03.429Z,37.57
2019-05-02T13:17:34.969Z,45.43
2019-05-02T13:20:01.495Z,43.30
2019-05-02T13:22:28.607Z,36.70
2019-05-02T13:24:56.352Z,38.93
2019-05-02T13:27:23.532Z,41.53
2019-05-02T13:29:52.408Z,42.77
2019-05-02T13:32:21.755Z,40.70
2019-05-02T13:34:54.103Z,44.07
2019-05-02T13:37:18.483Z,46.00
2019-05-02T13:40:02.551Z,45.00
2019-05-02T13:42:28.458Z,43.30
2019-05-02T13:44:55.894Z,45.77
2019-05-02T13:47:23.336Z,45.10
2019-05-02T13:49:54.847Z,47.23
2019-05-02T13:52:18.183Z,50.95
2019-05-02T13:54:45.610Z,43.50
2019-05-02T13:57:13.053Z,44.50
2019-05-02T13:59:41.688Z,40.07
2019-05-02T14:02:07.908Z,44.53
2019-05-02T14:04:35.349Z,36.73
2019-05-02T14:07:03.127Z,37.33
2019-05-02T14:09:32.222Z,30.97
2019-05-02T14:12:01.948Z,33.20
2019-05-02T14:14:27.829Z,33.40
2019-05-02T14:16:55.288Z,33.20
2019-05-02T14:19:22.698Z,31.53
2019-05-02T14:21:51.874Z,32.50
2019-05-02T14:24:17.556Z,35.67
2019-05-02T14:26:44.999Z,33.10
2019-05-02T14:29:16.093Z,29.27
2019-05-02T14:31:39.867Z,30.30
2019-05-02T14:34:22.624Z,27.47
2019-05-02T14:36:52.366Z,24.43
2019-05-02T14:39:17.469Z,24.60
2019-05-02T14:41:44.912Z,25.70
2019-05-02T14:44:12.323Z,25.93
2019-05-02T14:46:39.762Z,24.37
2019-05-02T14:49:07.174Z,24.10
2019-05-02T14:51:36.654Z,24.00
2019-05-02T14:54:06.163Z,25.20
2019-05-02T14:56:45.962Z,23.37
2019-05-02T14:59:09.127Z,24.37
2019-05-02T15:01:33.533Z,25.97
2019-05-02T15:04:06.443Z,23.70
2019-05-02T15:06:31.011Z,23.30
2019-05-02T15:08:55.821Z,22.23
2019-05-02T15:11:30.583Z,24.20
2019-05-02T15:13:52.472Z,24.53
2019-05-02T15:16:20.065Z,23.47
2019-05-02T15:18:47.536Z,22.77
2019-05-02T15:21:19.068Z,23.00
2019-05-02T15:23:48.859Z,22.17
2019-05-02T15:26:14.133Z,21.27
2019-05-02T15:28:42.202Z,19.40
2019-05-02T15:31:29.189Z,19.13
2019-05-02T15:33:56.240Z,19.60
2019-05-02T15:36:22.121Z,16.43
2019-05-02T15:38:49.234Z,17.50
2019-05-02T15:41:16.648Z,16.50
2019-05-02T15:43:47.524Z,18.77
2019-05-02T15:46:15.644Z,16.87
2019-05-02T15:48:38.912Z,17.40
2019-05-02T15:51:08.964Z,17.00
2019-05-02T15:54:04.394Z,17.60
2019-05-02T15:56:21.355Z,18.87
2019-05-02T15:58:46.696Z,18.93
2019-05-02T16:01:32.212Z,19.45
2019-05-02T16:03:59.557Z,18.60
2019-05-02T16:06:31.684Z,19.90
2019-05-02T16:08:54.455Z,17.87
2019-05-02T16:11:23.021Z,16.73
2019-05-02T16:13:52.744Z,17.00
2019-05-02T16:16:16.679Z,19.67
2019-05-02T16:18:44.104Z,20.10
2019-05-02T16:21:11.916Z,21.17
2019-05-02T16:23:38.974Z,22.80
2019-05-02T16:26:08.767Z,24.40
2019-05-02T16:28:36.792Z,22.40
2019-05-02T16:31:01.549Z,21.30
2019-05-02T16:33:28.727Z,19.47
2019-05-02T16:35:56.163Z,19.40
2019-05-02T16:38:26.878Z,21.30
2019-05-02T16:40:52.673Z,19.50
2019-05-02T16:43:18.516Z,19.27
2019-05-02T16:45:45.957Z,19.40
2019-05-02T16:48:13.387Z,16.57
2019-05-02T16:50:42.071Z,17.17
2019-05-02T16:53:08.257Z,16.57
2019-05-02T16:55:35.700Z,15.97
2019-05-02T16:58:06.968Z,15.80
2019-05-02T17:00:32.009Z,17.37
2019-05-02T17:02:58.016Z,18.97
2019-05-02T17:05:25.468Z,17.97
2019-05-02T17:07:58.754Z,20.10
2019-05-02T17:10:32.195Z,21.37
2019-05-02T17:13:00.908Z,21.43
2019-05-02T17:15:31.267Z,22.23
2019-05-02T17:17:56.827Z,25.00
2019-05-02T17:20:24.279Z,25.43
2019-05-02T17:22:57.139Z,26.83
2019-05-02T17:25:19.131Z,28.77
2019-05-02T17:27:46.554Z,29.13
2019-05-02T17:30:13.986Z,30.13
2019-05-02T17:32:41.597Z,30.43
2019-05-02T17:35:10.057Z,31.33
2019-05-02T17:37:40.686Z,31.70
2019-05-02T17:40:03.776Z,35.07
2019-05-02T17:42:32.348Z,39.03
2019-05-02T17:45:01.701Z,33.40
2019-05-02T17:47:30.865Z,33.93
2019-05-02T17:49:54.674Z,36.23
2019-05-02T17:52:26.821Z,36.67
2019-05-02T17:54:49.539Z,34.43
2019-05-02T17:57:16.928Z,34.70
2019-05-02T17:59:44.400Z,35.53
2019-05-02T18:02:15.793Z,34.17
2019-05-02T18:04:39.243Z,35.30
2019-05-02T18:07:06.690Z,35.00
2019-05-02T18:09:35.165Z,36.77
2019-05-02T18:12:01.618Z,36.63
2019-05-02T18:14:28.974Z,36.93
2019-05-02T18:16:56.405Z,36.27
2019-05-02T18:19:24.737Z,36.40
2019-05-02T18:21:52.622Z,38.67
2019-05-02T18:24:18.775Z,38.17
2019-05-02T18:26:46.232Z,38.60
2019-05-02T18:29:15.462Z,39.70
2019-05-02T18:31:47.395Z,41.60
2019-05-02T18:34:14.329Z,40.83
2019-05-02T18:36:35.955Z,43.83
2019-05-02T18:39:05.108Z,41.87
2019-05-02T18:41:31.866Z,44.20
2019-05-02T18:43:58.288Z,42.73
2019-05-02T18:46:25.715Z,43.03
2019-05-02T18:48:53.156Z,43.17
2019-05-02T18:51:21.852Z,44.20
2019-05-02T18:53:48.026Z,41.93
2019-05-02T18:56:15.469Z,44.17
2019-05-02T18:58:45.112Z,46.03
2019-05-02T19:01:14.051Z,44.13
2019-05-02T19:03:37.738Z,46.23
2019-05-02T19:06:05.183Z,46.83
2019-05-02T19:08:45.197Z,46.53
2019-05-02T19:11:05.908Z,47.03
2019-05-02T19:13:29.850Z,49.47
2019-05-02T19:16:14.496Z,47.90
2019-05-02T19:18:42.582Z,48.80
2019-05-02T19:21:09.352Z,48.87
2019-05-02T19:23:36.786Z,48.63
2019-05-02T19:26:09.941Z,48.50
2019-05-02T19:28:38.249Z,49.63
2019-05-02T19:31:02.963Z,48.90
2019-05-02T19:33:28.957Z,47.03
2019-05-02T19:35:56.370Z,51.40
2019-05-02T19:38:26.245Z,48.93
2019-05-02T19:40:52.018Z,49.37
2019-05-02T19:43:18.706Z,41.67
2019-05-02T19:45:52.590Z,45.70
2019-05-02T19:48:14.059Z,43.70
2019-05-02T19:50:43.865Z,41.60
2019-05-02T19:53:15.259Z,41.23
2019-05-02T19:55:36.189Z,35.67
2019-05-02T19:58:06.415Z,32.93
2019-05-02T20:00:31.847Z,31.20
2019-05-02T20:02:58.484Z,34.17
2019-05-02T20:05:27.198Z,33.27
2019-05-02T20:07:54.609Z,33.53
2019-05-02T20:10:22.674Z,34.20
2019-05-02T20:12:50.910Z,31.93
2019-05-02T20:15:17.045Z,31.80
2019-05-02T20:17:44.304Z,31.43
2019-05-02T20:20:29.992Z,30.80
2019-05-02T20:22:57.406Z,32.03
2019-05-02T20:25:24.856Z,32.70
2019-05-02T20:27:52.629Z,33.33
2019-05-02T20:30:19.720Z,30.97
2019-05-02T20:32:47.179Z,29.73
2019-05-02T20:35:14.582Z,31.30
2019-05-02T20:37:42.078Z,28.77
2019-05-02T20:40:09.485Z,29.70
2019-05-02T20:42:36.971Z,28.63
2019-05-02T20:45:04.824Z,28.67
2019-05-02T20:47:32.331Z,26.93
2019-05-02T20:49:59.791Z,26.27
2019-05-02T20:52:27.272Z,26.13
2019-05-02T20:54:54.745Z,24.17
2019-05-02T20:57:22.238Z,24.53
2019-05-02T20:59:49.724Z,24.17
2019-05-02T21:02:17.189Z,23.50
2019-05-02T21:04:44.681Z,21.13
2019-05-02T21:07:26.976Z,23.90
2019-05-02T21:09:54.465Z,22.30
2019-05-02T21:12:21.930Z,22.13
2019-05-02T21:14:49.437Z,21.37
2019-05-02T21:17:16.905Z,22.17
2019-05-02T21:19:44.360Z,20.97
2019-05-02T21:22:11.852Z,19.83
2019-05-02T21:24:39.325Z,19.33
2019-05-02T21:27:06.797Z,19.77
2019-05-02T21:29:34.262Z,20.03
2019-05-02T21:32:03.784Z,20.60
2019-05-02T21:34:29.246Z,19.67
2019-05-02T21:36:56.735Z,19.77
2019-05-02T21:39:24.201Z,18.67
2019-05-02T21:41:51.764Z,19.98
2019-05-02T21:44:19.141Z,18.83
2019-05-02T21:46:46.606Z,18.60
2019-05-02T21:49:14.088Z,18.53
2019-05-02T21:51:42.602Z,17.77
2019-05-02T21:54:24.109Z,18.77
2019-05-02T21:56:52.218Z,19.73
2019-05-02T21:59:19.038Z,18.97
2019-05-02T22:01:49.344Z,19.57
2019-05-02T22:04:16.824Z,21.67
2019-05-02T22:06:44.296Z,20.60
2019-05-02T22:09:12.352Z,21.30
2019-05-02T22:11:39.267Z,21.40
2019-05-02T22:14:06.739Z,21.67
2019-05-02T22:16:34.227Z,20.07
2019-05-02T22:19:02.935Z,21.83
2019-05-02T22:21:29.178Z,22.33
2019-05-02T22:24:08.236Z,21.70
2019-05-02T22:26:24.111Z,20.43
2019-05-02T22:28:53.575Z,22.53
2019-05-02T22:31:19.069Z,22.50
2019-05-02T22:33:46.557Z,22.90
2019-05-02T22:36:14.012Z,22.17
2019-05-02T22:38:47.184Z,23.63
2019-05-02T22:41:14.652Z,24.87
2019-05-02T22:43:42.230Z,24.40
2019-05-02T22:46:09.590Z,27.17
2019-05-02T22:48:37.064Z,25.80
2019-05-02T22:51:04.519Z,26.00
2019-05-02T22:53:32.253Z,27.90
2019-05-02T22:55:59.475Z,26.53
2019-05-02T22:58:26.954Z,28.47
2019-05-02T23:00:54.420Z,26.23
2019-05-02T23:03:24.126Z,26.13
2019-05-02T23:05:49.546Z,26.13
2019-05-02T23:08:16.940Z,26.00
2019-05-02T23:10:44.428Z,27.23
2019-05-02T23:13:12.973Z,27.50
2019-05-02T23:15:39.346Z,28.90
2019-05-02T23:18:06.840Z,28.40
2019-05-02T23:20:34.312Z,28.67
2019-05-02T23:23:01.949Z,26.43
2019-05-02T23:25:47.558Z,27.77
2019-05-02T23:28:15.011Z,27.90
2019-05-02T23:30:42.521Z,27.43
2019-05-02T23:33:09.987Z,27.90
2019-05-02T23:35:37.455Z,27.70
2019-05-02T23:38:04.954Z,29.67
2019-05-02T23:40:32.423Z,29.27
2019-05-02T23:43:01.763Z,28.80
2019-05-02T23:45:46.984Z,29.03
2019-05-02T23:48:14.473Z,28.23
2019-05-02T23:50:41.935Z,28.67
2019-05-02T23:53:09.583Z,26.50
2019-05-02T23:55:37.039Z,27.13
2019-05-02T23:58:04.519Z,29.97
